Metar reader and decoder

 

LIRH - Frosinone (it-Af, Italy
Distance from station: SO 5km
Dati ricevuti: 23/02/2024 18:55
Non Attivo
Pioviggine, Mist, Nuvoloso
Pioviggine, Mist, Nuvoloso
 Vento da SSE
Vento: SSE 26 km/h, Raffica: 44 km/h
Temperatura: 12°C
P.to Rugiada: 11°C
Umidità: 94%
Barometro: 1001 hPa
Summary: Pioviggine, Mist
Clouds: Molto nuvoloso
Visibility: 4 km
Cloud details: Parz. nuvoloso 610 m
Molto nuvoloso 914 m
2024/02/23 17:55 LIRH 231755Z 15014G24KT 4000 -RA BR SCT020 BKN030 12/11 Q1001
LIRL - Latina (it-Afb), Italy
Distance from station: OSO 40km
Dati ricevuti: 23/02/2024 18:55
Non Attivo
Pioviggine, Nuvoloso
Pioviggine, Nuvoloso
 Vento da SSE
Vento: SSE 24 km/h
Temperatura: 14°C
P.to Rugiada: 14°C
Umidità: 100%
Barometro: 1004 hPa
Summary: Pioviggine
Clouds: Molto nuvoloso
Visibility: 6 km
Cloud details: Parz. nuvoloso 457 m
Few Clouds 549 m
Molto nuvoloso 914 m
2024/02/23 17:55 LIRL 231755Z 16013KT 6000 -RA SCT015 FEW018CB BKN030 14/14 Q1004
 
LIRG - Guidonia (it-Afb, Italy
Distance from station: NO 63km
Dati ricevuti: 23/02/2024 18:55
Non Attivo
Light thunderstorm, Pioggia, Mist, Nuvoloso
Light thunderstorm, Pioggia, Mist, Nuvoloso
 Vento da SE
Vento: SE 19 km/h
Temperatura: 14°C
P.to Rugiada: 14°C
Umidità: 100%
Barometro: 1003 hPa
Summary: Light thunderstorm, Pioggia, Mist
Clouds: Molto nuvoloso
Visibility: 5 km
Cloud details: Parz. nuvoloso 610 m
Molto nuvoloso 914 m
2024/02/23 17:55 LIRG 231755Z 14010KT 5000 -TSRA BR SCT020CB BKN030 14/14 Q1003
LIRA - Ciampino(It-Afb/, Italy
Distance from station: ONO 64km
Dati ricevuti: 24/02/2024 01:20
Sereno
Sereno
 Vento da SSE
Vento: SSE 9 km/h
Temperatura: 9°C
Temperatura del Vento: 7°C
P.to Rugiada: 6°C
Umidità: 82%
Barometro: 1008 hPa
Summary: Sereno
Visibility: greater than 10 km
2024/02/24 00:20 LIRA 240020Z 16005KT CAVOK 09/06 Q1008
 
LIRU - Roma/Urbe (it-Af, Italy
Distance from station: ONO 76km
Dati ricevuti: 23/02/2024 16:50
Non Attivo
Pioggia, Nuvoloso
Pioggia, Nuvoloso
 Vento da S
Vento: S 31 km/h, Raffica: 56 km/h
Temperatura: 15°C
P.to Rugiada: 12°C
Umidità: 82%
Barometro: 1001 hPa
Summary: Pioggia
Clouds: Molto nuvoloso
Visibility: 4 km
Cloud details: Molto nuvoloso 610 m
2024/02/23 15:50 LIRU 231550Z 17017G30KT 4000 RA BKN020 15/12 Q1001
LIRE - Pratica Di Mare(, Italy
Distance from station: O 77km
Dati ricevuti: 24/02/2024 00:55
Parz. nuvoloso
Parz. nuvoloso
 Vento da O
Vento: O 17 km/h
Temperatura: 13°C
P.to Rugiada: 9°C
Umidità: 77%
Barometro: 1008 hPa
Clouds: Parz. nuvoloso
Visibility: 8 km
Cloud details: Few Clouds 914 m
Parz. nuvoloso 2134 m
2024/02/23 23:55 LIRE 232355Z 27009KT 8000 FEW030 SCT070 13/09 Q1008
 
LIQN - Rieti, Italy
Distance from station: NNO 92km
Dati ricevuti: 23/02/2024 17:50
Non Attivo
Pioggia, Nuvoloso
Pioggia, Nuvoloso
 Vento da SE
Vento: SE 22 km/h
Temperatura: 11°C
P.to Rugiada: 9°C
Umidità: 88%
Barometro: 1002 hPa
Summary: Pioggia
Clouds: Molto nuvoloso
Visibility: 2 km
Cloud details: Molto nuvoloso 914 m
2024/02/23 16:50 LIQN 231650Z 14012KT 110V170 2000 RA BKN030 11/09 Q1002
LIRK - Terminillo, Italy
Distance from station: NNO 93km
Dati ricevuti: 24/02/2024 00:55

 Vento da ONO
Vento: ONO 15 km/h, Raffica: 37 km/h
Temperatura: -1°C
Temperatura del Vento: -6°C
P.to Rugiada: -2°C
Umidità: 93%
Barometro: 1018 hPa
2024/02/23 23:55 LIRK 232355Z AUTO 30008G20KT //// M01/M02 Q1018
 
LIRF - Roma/Fiumicino, Italy
Distance from station: O 94km
Dati ricevuti: 24/02/2024 01:20
Parz. nuvoloso
Parz. nuvoloso
 Vento da O
Vento: O 7 km/h
Temperatura: 11°C
P.to Rugiada: 6°C
Umidità: 72%
Barometro: 1007 hPa
Clouds: Parz. nuvoloso
Visibility: 10 km
Cloud details: Parz. nuvoloso 914 m
2024/02/24 00:20 LIRF 240020Z 26004KT 9999 SCT030 11/06 Q1007 NOSIG
LIRM - Grazzanise (it-A, Italy
Distance from station: SE 94km
Dati ricevuti: 24/02/2024 00:55
Pioviggine, Nuvoloso
Pioviggine, Nuvoloso
 Vento da SSO
Vento: SSO 7 km/h
Temperatura: 11°C
P.to Rugiada: 10°C
Umidità: 94%
Barometro: 1008 hPa
Summary: Pioviggine
Clouds: Molto nuvoloso
Visibility: 8 km
Cloud details: Parz. nuvoloso 762 m
Molto nuvoloso 1829 m
2024/02/23 23:55 LIRM 232355Z 20004KT 8000 -RA SCT025 BKN060 11/10 Q1008
 
LIBP - Pescara, Italy
Distance from station: NE 108km
Dati ricevuti: 24/02/2024 01:20
Molto nuvoloso
Molto nuvoloso
 Vento da OSO
Vento: OSO 15 km/h
Temperatura: 14°C
P.to Rugiada: 4°C
Umidità: 51%
Barometro: 1005 hPa
Clouds: Molto nuvoloso
Visibility: 10 km
Cloud details: Molto nuvoloso 6706 m
2024/02/24 00:20 LIBP 240020Z AUTO 25008KT 220V350 9999 BKN220/// 14/04 Q1005
LIRN - Napoli/Capodichino, Italy
Distance from station: SE 120km
Dati ricevuti: 24/02/2024 01:20
Pioviggine, Parz. nuvoloso
Pioviggine, Parz. nuvoloso
 Vento da SSO
Vento: SSO 6 km/h
Temperatura: 11°C
P.to Rugiada: 9°C
Umidità: 88%
Barometro: 1009 hPa
Summary: Pioviggine
Clouds: Parz. nuvoloso
Visibility: 8 km
Cloud details: Parz. nuvoloso 457 m
2024/02/24 00:20 LIRN 240020Z 20003KT 160V270 8000 -RA SCT015 11/09 Q1009 NOSIG
 
LIRV - Viterbo (it-Mil), Italy
Distance from station: NO 133km
Dati ricevuti: 23/02/2024 18:55
Non Attivo
Parz. nuvoloso
Parz. nuvoloso
 Vento da SO
Vento: SO 26 km/h
Temperatura: 10°C
Temperatura del Vento: 7°C
P.to Rugiada: 8°C
Umidità: 88%
Barometro: 1002 hPa
Clouds: Parz. nuvoloso
Visibility: 10 km
Cloud details: Few Clouds 305 m
Parz. nuvoloso 610 m
2024/02/23 17:55 LIRV 231755Z 22014KT 9999 FEW010 SCT020 10/08 Q1002
LIQC - Capri, Italy
Distance from station: SSE 145km
Dati ricevuti: 24/02/2024 00:55
Pioviggine, Parz. nuvoloso
Pioviggine, Parz. nuvoloso
 Vento da SO
Vento: SO 6 km/h
Temperatura: 11°C
P.to Rugiada: 10°C
Umidità: 94%
Barometro: 1011 hPa
Summary: Pioviggine
Clouds: Parz. nuvoloso
Visibility: 10 km
Cloud details: Parz. nuvoloso 701 m
2024/02/23 23:55 LIQC 232355Z 23003KT 9999 -RA SCT023 11/10 Q1011 RMK BKN BKN070 QUK / QUL / VIS MAR 10 KM VIS MIN 9999
 
LIRT - Trevico, Italy
Distance from station: ESE 172km
Dati ricevuti: 23/02/2024 18:55
Non Attivo

 
2024/02/23 17:55 LIRT 231755Z ///16KT CAVOK 07/M30 Q1005
LIRZ - Perugia, Italy
Distance from station: NNO 172km
Dati ricevuti: 24/02/2024 01:20
Sereno
Sereno
 Vento da varies
Vento: varies 2 km/h
Temperatura: 5°C
P.to Rugiada: 5°C
Umidità: 100%
Barometro: 1007 hPa
Clouds: Sereno
Visibility: 10 km
2024/02/24 00:20 LIRZ 240020Z AUTO VRB01KT 9999 NCD 05/05 Q1007
 
LIRI - Pontecagnano (af, Italy
Distance from station: SE 177km
Dati ricevuti: 23/02/2024 16:50
Non Attivo
Sereno
Sereno
 Vento da SSO
Vento: SSO 11 km/h
Temperatura: 16°C
P.to Rugiada: 8°C
Umidità: 59%
Barometro: 1009 hPa
Summary: Sereno
Visibility: greater than 10 km
2024/02/23 15:50 LIRI 231550Z 20006KT 170V230 CAVOK 16/08 Q1009
LIBF - Foggia/Gino Lisa, Italy
Distance from station: E 183km
Dati ricevuti: 23/02/2024 22:50
Non Attivo
Few Clouds
Few Clouds
 Vento da S
Vento: S 22 km/h
Temperatura: 16°C
P.to Rugiada: 7°C
Umidità: 55%
Barometro: 1006 hPa
Clouds: Few Clouds
Visibility: 10 km
Cloud details: Few Clouds 1524 m
2024/02/23 21:50 LIBF 232150Z 18012KT 9999 FEW050 16/07 Q1006
 
LIQO - Monte Argentario, Italy
Distance from station: ONO 195km
Dati ricevuti: 24/02/2024 00:55

 Vento da ESE
Vento: ESE 13 km/h
Temperatura: 6°C
Temperatura del Vento: 3°C
P.to Rugiada: 4°C
Umidità: 87%
Barometro: 1006 hPa
2024/02/23 23:55 LIQO 232355Z AUTO 12007KT //// 06/04 Q1006
LIBA - Amendola (it-Afb, Italy
Distance from station: E 198km
Dati ricevuti: 24/02/2024 00:55
Parz. nuvoloso
Parz. nuvoloso
 Vento da SE
Vento: SE 11 km/h
Temperatura: 14°C
P.to Rugiada: 6°C
Umidità: 59%
Barometro: 1007 hPa
Clouds: Parz. nuvoloso
Visibility: 10 km
Cloud details: Parz. nuvoloso 1829 m
2024/02/23 23:55 LIBA 232355Z 14006KT 9999 SCT060 14/06 Q1007
 
LIBN - Lecce (it-Afb), Italy
Dati ricevuti: 24/02/2024 00:55
Molto nuvoloso
Molto nuvoloso
 Vento da S
Vento: S 31 km/h
Temperatura: 15°C
P.to Rugiada: 14°C
Umidità: 94%
Barometro: 1012 hPa
Clouds: Molto nuvoloso
Visibility: 10 km
Cloud details: Molto nuvoloso 549 m
2024/02/23 23:55 LIBN 232355Z 17017KT 9999 BKN018 15/14 Q1012
LIPY - Ancona-Falconara, Italy
Dati ricevuti: 24/02/2024 01:20
Sereno
Sereno
 Vento da SE
Vento: SE 11 km/h
Temperatura: 11°C
P.to Rugiada: 2°C
Umidità: 54%
Barometro: 1005 hPa
Clouds: Sereno
Visibility: 10 km
2024/02/24 00:20 LIPY 240020Z AUTO 14006KT 110V170 9999 NCD 11/02 Q1005
 
LICJ - Palermo-Punta Raisi, Italy
Dati ricevuti: 24/02/2024 01:20
Pioggia, Parz. nuvoloso
Pioggia, Parz. nuvoloso
 Vento da SO
Vento: SO 17 km/h
Temperatura: 14°C
P.to Rugiada: 11°C
Umidità: 82%
Barometro: 1011 hPa
Summary: Pioggia
Clouds: Parz. nuvoloso
Visibility: 10 km
Cloud details: Few Clouds 762 m
Parz. nuvoloso 1524 m
2024/02/24 00:20 LICJ 240020Z 22009KT 9999 RA FEW025 SCT050 14/11 Q1011
LIEB - Capo Bellavista, Italy
Dati ricevuti: 24/02/2024 00:55
Sereno
Sereno
 Vento da O
Vento: O 39 km/h
Temperatura: 12°C
P.to Rugiada: 2°C
Umidità: 51%
Barometro: 1008 hPa
Summary: Sereno
Visibility: greater than 10 km
2024/02/23 23:55 LIEB 232355Z 28021KT CAVOK 12/02 Q1008 RMK FEW FEW200 QUK / QUL / VIS MAR 20 KM MON INVIS VIS MIN 9999
 
LIEC - Capo Carbonara, Italy
Dati ricevuti: 23/02/2024 21:55
Non Attivo
Few Clouds
Few Clouds
 Vento da ONO
Vento: ONO 46 km/h
Temperatura: 12°C
P.to Rugiada: 8°C
Umidità: 77%
Barometro: 1008 hPa
Clouds: Few Clouds
Visibility: 10 km
Cloud details: Few Clouds 610 m
2024/02/23 20:55 LIEC 232055Z 29025KT 9999 FEW020 12/08 Q1008 RMK BKN BKN200 QUK / QUL / VIS MAR 16 KM VIS MIN 9999
LIED - Cagliari-Decimomannu(It-A, Italy
Dati ricevuti: 24/02/2024 00:55
Sereno
Sereno
 Vento da ENE
Vento: ENE 4 km/h
Temperatura: 6°C
P.to Rugiada: 5°C
Umidità: 93%
Barometro: 1010 hPa
Summary: Sereno
Visibility: greater than 10 km
2024/02/23 23:55 LIED 232355Z 07002KT CAVOK 06/05 Q1010
 
LIEE - Cagliari-Elmas(A, Italy
Dati ricevuti: 24/02/2024 01:20
Sereno
Sereno
 Vento da NE
Vento: NE 7 km/h
Temperatura: 7°C
Temperatura del Vento: 6°C
P.to Rugiada: 4°C
Umidità: 81%
Barometro: 1011 hPa
Summary: Sereno
Visibility: greater than 10 km
2024/02/24 00:20 LIEE 240020Z 04004KT CAVOK 07/04 Q1011
LIEO - Olbia-Costa Smeralda, Italy
Dati ricevuti: 24/02/2024 01:20
Sereno
Sereno
 Vento da SO
Vento: SO 11 km/h
Temperatura: 7°C
Temperatura del Vento: 5°C
P.to Rugiada: 5°C
Umidità: 87%
Barometro: 1009 hPa
Clouds: Sereno
Visibility: 10 km
2024/02/24 00:20 LIEO 240020Z AUTO 23006KT 9999 // NCD 07/05 Q1009
 
LIEA - Alghero, Italy
Dati ricevuti: 24/02/2024 01:20
Few Clouds
Few Clouds
 Vento da OSO
Vento: OSO 13 km/h
Temperatura: 11°C
P.to Rugiada: 5°C
Umidità: 67%
Barometro: 1009 hPa
Clouds: Few Clouds
Visibility: 10 km
Cloud details: Few Clouds 914 m
2024/02/24 00:20 LIEA 240020Z 24007KT 9999 FEW030 11/05 Q1009
LICA - Catanzaro-Lamezia Terme, Italy
Dati ricevuti: 24/02/2024 01:20
Coperto
Coperto
 Vento da E
Vento: E 7 km/h
Temperatura: 12°C
P.to Rugiada: 9°C
Umidità: 82%
Barometro: 1013 hPa
Clouds: Coperto
Visibility: 10 km
Cloud details: Molto nuvoloso 2103 m
Coperto 3353 m
2024/02/24 00:20 LICA 240020Z AUTO 08004KT 9999 BKN069/// OVC110/// 12/09 Q1013
 
LIBQ - Cosenza-Monte Scuro, Italy
Dati ricevuti: 24/02/2024 00:55

 Vento da OSO
Vento: OSO 7 km/h, Raffica: 28 km/h
Temperatura: 3°C
Temperatura del Vento: 1°C
P.to Rugiada: 2°C
Umidità: 93%
Barometro: 1012 hPa
2024/02/23 23:55 LIBQ 232355Z AUTO 24004G15KT //// 03/02 Q1012
LICR - Reggio Calabria, Italy
Dati ricevuti: 24/02/2024 01:20
Molto nuvoloso
Molto nuvoloso
 Vento da SSE
Vento: SSE 19 km/h
Temperatura: 16°C
P.to Rugiada: 11°C
Umidità: 72%
Barometro: 1013 hPa
Clouds: Molto nuvoloso
Visibility: 10 km
Cloud details: Molto nuvoloso 2286 m
Molto nuvoloso 3048 m
2024/02/24 00:20 LICR 240020Z AUTO 15010KT 9999 BKN075/// BKN100/// 16/11 Q1013
 
LIBV - Bari-Gioia Del Colle, Italy
Dati ricevuti: 24/02/2024 00:55
Parz. nuvoloso
Parz. nuvoloso
 Vento da SSE
Vento: SSE 19 km/h
Temperatura: 12°C
P.to Rugiada: 12°C
Umidità: 100%
Barometro: 1010 hPa
Clouds: Parz. nuvoloso
Visibility: 6 km
Cloud details: Parz. nuvoloso 152 m
2024/02/23 23:55 LIBV 232355Z 15010KT 6000 SCT005 12/12 Q1010
LIBD - Bari-Palese Macchie, Italy
Dati ricevuti: 24/02/2024 01:20
Sereno
Sereno
 Vento da S
Vento: S 11 km/h
Temperatura: 15°C
P.to Rugiada: 8°C
Umidità: 63%
Barometro: 1009 hPa
Summary: Sereno
Visibility: greater than 10 km
2024/02/24 00:20 LIBD 240020Z 18006KT CAVOK 15/08 Q1009
 
LIBR - Brindisi-Casale, Italy
Dati ricevuti: 24/02/2024 01:20
Parz. nuvoloso
Parz. nuvoloso
 Vento da S
Vento: S 31 km/h, Raffica: 50 km/h
Temperatura: 15°C
P.to Rugiada: 12°C
Umidità: 82%
Barometro: 1011 hPa
Clouds: Parz. nuvoloso
Visibility: 10 km
Cloud details: Parz. nuvoloso 610 m
Parz. nuvoloso 1219 m
2024/02/24 00:20 LIBR 240020Z 19017G27KT 9999 SCT020 SCT040 15/12 Q1011
LIRT - Trevico, Italy
Dati ricevuti: 23/02/2024 18:55
Non Attivo

 
2024/02/23 17:55 LIRT 231755Z ///16KT CAVOK 07/M30 Q1005
 
LICB - Comiso, Italy
Dati ricevuti: 24/02/2024 01:20
Pioviggine, Nuvoloso
Pioviggine, Nuvoloso
 Vento da SSO
Vento: SSO 17 km/h
Temperatura: 14°C
P.to Rugiada: 10°C
Umidità: 77%
Barometro: 1013 hPa
Summary: Pioviggine
Clouds: Molto nuvoloso
Visibility: 10 km
Cloud details: Molto nuvoloso 2164 m
2024/02/24 00:20 LICB 240020Z AUTO 21009KT 150V250 9999 -RA BKN071/// 14/10 Q1013
LICL - Gela, Italy
Dati ricevuti: 23/02/2024 11:55
Non Attivo
Parz. nuvoloso
Parz. nuvoloso
 Vento da SO
Vento: SO 24 km/h
Temperatura: 14°C
P.to Rugiada: 10°C
Umidità: 77%
Barometro: 1014 hPa
Clouds: Parz. nuvoloso
Visibility: 10 km
Cloud details: Parz. nuvoloso 914 m
2024/02/23 10:55 LICL 231055Z 22013KT 9999 SCT030 14/10 Q1014 RMK BKN BKN100 QUK 3 QUL 1 SW VIS MAR 12 KM VIS MIN 9999
 
LIBN - Lecce (it-Afb), Italy
Dati ricevuti: 24/02/2024 00:55
Molto nuvoloso
Molto nuvoloso
 Vento da S
Vento: S 31 km/h
Temperatura: 15°C
P.to Rugiada: 14°C
Umidità: 94%
Barometro: 1012 hPa
Clouds: Molto nuvoloso
Visibility: 10 km
Cloud details: Molto nuvoloso 549 m
2024/02/23 23:55 LIBN 232355Z 17017KT 9999 BKN018 15/14 Q1012
LICJ - Palermo-Punta Raisi, Italy
Dati ricevuti: 24/02/2024 01:20
Pioggia, Parz. nuvoloso
Pioggia, Parz. nuvoloso
 Vento da SO
Vento: SO 17 km/h
Temperatura: 14°C
P.to Rugiada: 11°C
Umidità: 82%
Barometro: 1011 hPa
Summary: Pioggia
Clouds: Parz. nuvoloso
Visibility: 10 km
Cloud details: Few Clouds 762 m
Parz. nuvoloso 1524 m
2024/02/24 00:20 LICJ 240020Z 22009KT 9999 RA FEW025 SCT050 14/11 Q1011
 
LICZ - Catania-Sigonella (nas), Italy
Dati ricevuti: 24/02/2024 00:55
Molto nuvoloso
Molto nuvoloso
 Vento da NNE
Vento: NNE 6 km/h
Temperatura: 14°C
P.to Rugiada: 14°C
Umidità: 100%
Barometro: 1013 hPa
Clouds: Molto nuvoloso
Visibility: 10 km
Cloud details: Few Clouds 914 m
Molto nuvoloso 3048 m
2024/02/23 23:55 LICZ 232355Z 02003KT 9999 FEW030 BKN100 14/14 Q1013
LICC - Catania-Fontanarossa, Italy
Dati ricevuti: 24/02/2024 01:20
Molto nuvoloso
Molto nuvoloso
 Vento da ONO
Vento: ONO 7 km/h
Temperatura: 15°C
P.to Rugiada: 10°C
Umidità: 72%
Barometro: 1013 hPa
Clouds: Molto nuvoloso
Visibility: 10 km
Cloud details: Few Clouds 1219 m
Molto nuvoloso 3048 m
2024/02/24 00:20 LICC 240020Z 29004KT 9999 FEW040 BKN100 15/10 Q1013
 
LICT - Trapani-Birgi (a, Italy
Dati ricevuti: 24/02/2024 00:55
Pioviggine, Parz. nuvoloso
Pioviggine, Parz. nuvoloso
 Vento da ONO
Vento: ONO 15 km/h
Temperatura: 15°C
P.to Rugiada: 13°C
Umidità: 88%
Barometro: 1011 hPa
Summary: Pioviggine
Clouds: Parz. nuvoloso
Visibility: 10 km
Cloud details: Parz. nuvoloso 610 m
2024/02/23 23:55 LICT 232355Z 30008KT 9999 -RA SCT020 15/13 Q1011
LICD - Agrigento-Lampedusa, Italy
Dati ricevuti: 24/02/2024 01:20
Pioviggine, Nuvoloso
Pioviggine, Nuvoloso
 Vento da S
Vento: S 22 km/h
Temperatura: 17°C
P.to Rugiada: 14°C
Umidità: 83%
Barometro: 1012 hPa
Summary: Pioviggine
Clouds: Molto nuvoloso
Visibility: 10 km
Cloud details: Molto nuvoloso 2377 m
2024/02/24 00:20 LICD 240020Z AUTO 19012KT 9999 -RA BKN078/// 17/14 Q1012
 
LICG - Pantelleria(It-A, Italy
Dati ricevuti: 23/02/2024 19:50
Non Attivo
Parz. nuvoloso
Parz. nuvoloso
 Vento da S
Vento: S 20 km/h
Temperatura: 15°C
P.to Rugiada: 12°C
Umidità: 82%
Barometro: 1010 hPa
Clouds: Parz. nuvoloso
Visibility: 8 km
Cloud details: Parz. nuvoloso 1219 m
2024/02/23 18:50 LICG 231850Z 18011KT 8000 SCT040 15/12 Q1010
LIPX - Villafranca(Cv/M, Italy
Dati ricevuti: 24/02/2024 01:20
Parz. nuvoloso
Parz. nuvoloso
 Vento da varies
Vento: varies 4 km/h
Temperatura: 5°C
P.to Rugiada: 4°C
Umidità: 93%
Barometro: 1001 hPa
Clouds: Parz. nuvoloso
Visibility: 9 km
2024/02/24 00:20 LIPX 240020Z VRB02KT 9000 NSC 05/04 Q1001
 
LIPO - Brescia/Montichiari, Italy
Dati ricevuti: 24/02/2024 01:20
Few Clouds
Few Clouds
 Vento da NNE
Vento: NNE 13 km/h
Temperatura: 6°C
Temperatura del Vento: 3°C
P.to Rugiada: 5°C
Umidità: 93%
Barometro: 1002 hPa
Clouds: Few Clouds
Visibility: 10 km
Cloud details: Few Clouds 610 m
2024/02/24 00:20 LIPO 240020Z AUTO 03007KT 9999 FEW020/// 06/05 Q1002
LIPL - Ghedi (it-Afb), Italy
Dati ricevuti: 24/02/2024 00:55
Parz. nuvoloso
Parz. nuvoloso
 Vento da ENE
Vento: ENE 17 km/h
Temperatura: 7°C
Temperatura del Vento: 4°C
P.to Rugiada: 6°C
Umidità: 93%
Barometro: 999 hPa
Clouds: Parz. nuvoloso
Visibility: 6 km
Cloud details: Few Clouds 549 m
Parz. nuvoloso 1829 m
2024/02/23 23:55 LIPL 232355Z 06009KT 6000 FEW018 SCT060 07/06 Q0999
 
LIMP - Parma, Italy
Dati ricevuti: 23/02/2024 22:50
Non Attivo
Mist, Few clouds
Mist, Few clouds
 Vento da SSE
Vento: SSE 6 km/h
Temperatura: 5°C
P.to Rugiada: 5°C
Umidità: 100%
Barometro: 1000 hPa
Summary: Mist
Clouds: Few Clouds
Visibility: 4 km
Cloud details: Few Clouds 610 m
2024/02/23 21:50 LIMP 232150Z 15003KT 110V170 4000 BR FEW020 05/05 Q1000
LIMS - Piacenza (it-Afb, Italy
Dati ricevuti: 23/02/2024 18:55
Non Attivo
Parz. nuvoloso
Parz. nuvoloso
 Vento da calm
Vento: Calma
Temperatura: 9°C
P.to Rugiada: 9°C
Umidità: 100%
Barometro: 997 hPa
Clouds: Parz. nuvoloso
Visibility: 8 km
Cloud details: Parz. nuvoloso 305 m
Parz. nuvoloso 457 m
2024/02/23 17:55 LIMS 231755Z 00000KT 8000 SCT010 SCT015 09/09 Q0997
 
LIPF - Ferrara (aut), Italy
Dati ricevuti: 23/02/2024 18:55
Non Attivo
Pioviggine, Parz. nuvoloso
Pioviggine, Parz. nuvoloso
 Vento da NNO
Vento: NNO 6 km/h
Temperatura: 9°C
P.to Rugiada: 9°C
Umidità: 100%
Barometro: 997 hPa
Summary: Pioviggine
Clouds: Parz. nuvoloso
Visibility: 6 km
Cloud details: Parz. nuvoloso 762 m
Parz. nuvoloso 2134 m
2024/02/23 17:55 LIPF 231755Z 34003KT 6000 -RA SCT025 SCT070 09/09 Q0997
LIPE - Bologna/Borgo (a, Italy
Dati ricevuti: 24/02/2024 01:20
Nebbia, Nuvoloso
Nebbia, Nuvoloso
 Vento da O
Vento: O 11 km/h
Temperatura: 6°C
Temperatura del Vento: 4°C
P.to Rugiada: 5°C
Umidità: 93%
Barometro: 1002 hPa
Summary: Nebbia
Clouds: Molto nuvoloso
Visibility: 0 km
Cloud details: Molto nuvoloso 30 m
2024/02/24 00:20 LIPE 240020Z 26006KT 0100 R12/0400D R30/0550N FG BKN001 06/05 Q1002
 
LIPU - Padova (civ/It-A, Italy
Dati ricevuti: 23/02/2024 15:50
Non Attivo
Pioggia, Nuvoloso
Pioggia, Nuvoloso
 Vento da S
Vento: S 4 km/h
Temperatura: 11°C
P.to Rugiada: 10°C
Umidità: 94%
Barometro: 996 hPa
Summary: Pioggia
Clouds: Molto nuvoloso
Visibility: 4 km
Cloud details: Molto nuvoloso 305 m
2024/02/23 14:50 LIPU 231450Z 19002KT 4000 RA BKN010 11/10 Q0996
LIME - Bergamo/Orio Ser, Italy
Dati ricevuti: 24/02/2024 01:20
Mist, Parz. nuvoloso
Mist, Parz. nuvoloso
 Vento da varies
Vento: varies 4 km/h
Temperatura: 7°C
P.to Rugiada: 7°C
Umidità: 100%
Barometro: 1001 hPa
Summary: Mist
Clouds: Parz. nuvoloso
Visibility: 3 km
Cloud details: Parz. nuvoloso 152 m
2024/02/24 00:20 LIME 240020Z VRB02KT 3000 BR SCT005 07/07 Q1001 NOSIG
 
LIMT - Cisa Pass, Italy
Dati ricevuti: 23/09/2019 13:55
Non Attivo
Nebbia
Nebbia
 Vento da calm
Vento: Calma
Temperatura: 10°C
P.to Rugiada: 10°C
Umidità: 100%
Barometro: 1014 hPa
Summary: Nebbia
Visibility: 0 km
2019/09/23 11:55 LIMT 231155Z 00000KT 0000 FG VV/// 10/10 Q1014 RMK MON INVIS VAL INVIS VIS MIN 0000
LIVC - Cimone Mountain, Italy
Dati ricevuti: 24/02/2024 00:55

 Vento da SSO
Vento: SSO 17 km/h, Raffica: 46 km/h
Temperatura: -2°C
Temperatura del Vento: -7°C
P.to Rugiada: -2°C
Umidità: 100%
Barometro: 999 hPa
2024/02/23 23:55 LIVC 232355Z AUTO 21009G25KT //// M02/M02 Q0999
 
LIVP - Paganella Mounta, Italy
Dati ricevuti: 24/02/2024 00:55
Freezing Fog
Freezing Fog
 Vento da N
Vento: N 9 km/h
Temperatura: -5°C
Temperatura del Vento: -9°C
P.to Rugiada: -7°C
Umidità: 86%
Barometro: 995 hPa
Summary: Freezing Fog
Visibility: 1 km
2024/02/23 23:55 LIVP 232355Z 36005KT 0900 FZFG VV/// M05/M07 Q0995
LIML - Milano/Linate, Italy
Dati ricevuti: 24/02/2024 01:20
Sereno
Sereno
 Vento da NNE
Vento: NNE 6 km/h
Temperatura: 5°C
P.to Rugiada: 4°C
Umidità: 93%
Barometro: 1001 hPa
Summary: Sereno
Visibility: greater than 10 km
2024/02/24 00:20 LIML 240020Z 02003KT CAVOK 05/04 Q1001 NOSIG
 
LIPS - Istrana (it-Afb), Italy
Dati ricevuti: 24/02/2024 00:55
Shallow fog, Few clouds
Shallow fog, Few clouds
 Vento da calm
Vento: Calma
Temperatura: 7°C
P.to Rugiada: 7°C
Umidità: 100%
Barometro: 1001 hPa
Summary: Shallow Fog
Clouds: Few Clouds
Visibility: 2 km
Cloud details: Few Clouds 1829 m
2024/02/23 23:55 LIPS 232355Z 00000KT 1600 MIFG FEW060 07/07 Q1001
LIPH - Treviso(Civ/It-A, Italy
Dati ricevuti: 24/02/2024 01:20
Molto nuvoloso
Molto nuvoloso
 Vento da varies
Vento: varies 2 km/h
Temperatura: 7°C
P.to Rugiada: 7°C
Umidità: 100%
Barometro: 1001 hPa
Clouds: Molto nuvoloso
Visibility: 8 km
Cloud details: Molto nuvoloso 1798 m
2024/02/24 00:20 LIPH 240020Z AUTO VRB01KT 8000 BKN059/// 07/07 Q1001
 
LIPZ - Venezia/Tessera, Italy
Dati ricevuti: 24/02/2024 01:20
Few Clouds
Few Clouds
 Vento da OSO
Vento: OSO 6 km/h
Temperatura: 7°C
P.to Rugiada: 5°C
Umidità: 87%
Barometro: 1001 hPa
Clouds: Few Clouds
Visibility: 10 km
Cloud details: Few Clouds 1829 m
2024/02/24 00:20 LIPZ 240020Z 24003KT 210V270 9999 FEW060 07/05 Q1001 NOSIG
LIQW - Sarzana/Luni, Italy
Dati ricevuti: 23/02/2024 11:55
Non Attivo
Pioggia, Mist, Nuvoloso
Pioggia, Mist, Nuvoloso
 Vento da E
Vento: E 6 km/h
Temperatura: 10°C
P.to Rugiada: 9°C
Umidità: 94%
Barometro: 998 hPa
Summary: Pioggia, Mist
Clouds: Molto nuvoloso
Visibility: 4 km
Cloud details: Parz. nuvoloso 305 m
Molto nuvoloso 610 m
2024/02/23 10:55 LIQW 231055Z 09003KT 4000 RA BR SCT010 BKN020 10/09 Q0998
 
LIVR - Rolle Pass, Italy
Dati ricevuti: 23/02/2024 20:55
Non Attivo
Neve, Freezing, Nebbia
Neve, Freezing, Nebbia
 Vento da S
Vento: S 15 km/h
Temperatura: -3°C
Temperatura del Vento: -8°C
P.to Rugiada: -5°C
Umidità: 86%
Barometro: 992 hPa
Summary: Neve, Freezing, Nebbia
Visibility: 0 km
2024/02/23 19:55 LIVR 231955Z 18008KT 0300 SN FZFG VV/// M03/M05 Q0992
LIPK - Forli (civ/It-Af, Italy
Dati ricevuti: 23/02/2024 19:50
Non Attivo
Parz. nuvoloso
Parz. nuvoloso
 Vento da SO
Vento: SO 15 km/h
Temperatura: 8°C
Temperatura del Vento: 5°C
P.to Rugiada: 1°C
Umidità: 62%
Barometro: 1000 hPa
Clouds: Parz. nuvoloso
Visibility: 10 km
Cloud details: Parz. nuvoloso 1524 m
2024/02/23 18:50 LIPK 231850Z 22008KT 9999 SCT050 08/01 Q1000
 
LIMV - Giovi Pass, Italy
Dati ricevuti: 23/02/2024 18:55
Non Attivo
Sereno
Sereno
 Vento da varies
Vento: varies 0 km/h
Temperatura: 7°C
P.to Rugiada: 5°C
Umidità: 87%
Barometro: 997 hPa
Summary: Sereno
Visibility: greater than 10 km
2024/02/23 17:55 LIMV 231755Z /////KT CAVOK 07/05 Q0997
LIPB - Bolzano(Civ/It-A, Italy
Dati ricevuti: 23/02/2024 22:50
Non Attivo
Pioggia, Mist, Nuvoloso
Pioggia, Mist, Nuvoloso
 Vento da SSO
Vento: SSO 7 km/h
Temperatura: 3°C
Temperatura del Vento: 1°C
P.to Rugiada: 3°C
Umidità: 100%
Barometro: 1002 hPa
Summary: Pioggia, Mist
Clouds: Molto nuvoloso
Visibility: 4 km
Cloud details: Parz. nuvoloso 305 m
Molto nuvoloso 1372 m
2024/02/23 21:50 LIPB 232150Z 20004KT 4000 RA BR SCT010 BKN045 03/03 Q1002
 
LIVD - Bolzano-Dobbiaco, Italy
Dati ricevuti: 24/02/2024 00:55

 Vento da O
Vento: O 7 km/h
Temperatura: -2°C
Temperatura del Vento: -6°C
P.to Rugiada: -2°C
Umidità: 100%
Barometro: 1001 hPa
2024/02/23 23:55 LIVD 232355Z AUTO 28004KT 230V320 //// M02/M02 Q1001
LIVE - Bolzano-Passo Resia, Italy
Dati ricevuti: 24/02/2024 00:55
Sereno
Sereno
 Vento da N
Vento: N 4 km/h
Temperatura: -5°C
P.to Rugiada: -8°C
Umidità: 80%
Barometro: 999 hPa
Summary: Sereno
Visibility: greater than 10 km
2024/02/23 23:55 LIVE 232355Z 01002KT CAVOK M05/M08 Q0999
 
LIMH - Aosta-Pian Rosa (mtn T, Italy
Dati ricevuti: 22/12/2023 00:55
Non Attivo

 Vento da ENE
Vento: ENE 17 km/h, Raffica: 37 km/h
Temperatura: -11°C
Temperatura del Vento: -18°C
P.to Rugiada: -13°C
Umidità: 85%
Barometro: 1005 hPa
2023/12/21 23:55 LIMH 212355Z AUTO 06009G20KT //// M11/M13 Q1005
LIMZ - Cuneo/Levaldigi, Italy
Dati ricevuti: 24/02/2024 01:20
Sereno
Sereno
 Vento da S
Vento: S 7 km/h
Temperatura: 0°C
Temperatura del Vento: -3°C
P.to Rugiada: -1°C
Umidità: 93%
Barometro: 1000 hPa
Clouds: Sereno
Visibility: 10 km
2024/02/24 00:20 LIMZ 240020Z AUTO 19004KT 9999 NCD 00/M01 Q1000
 
LIMK - Torino-Bric Della Croce, Italy
Dati ricevuti: 24/02/2024 00:55

 Vento da ESE
Vento: ESE 2 km/h
Temperatura: 5°C
P.to Rugiada: 3°C
Umidità: 87%
Barometro: 999 hPa
2024/02/23 23:55 LIMK 232355Z AUTO 11001KT //// 05/03 Q0999
LIMN - Novara-Cameri (it-Afb), Italy
Dati ricevuti: 23/02/2024 18:55
Non Attivo
Few Clouds
Few Clouds
 Vento da calm
Vento: Calma
Temperatura: 11°C
P.to Rugiada: 9°C
Umidità: 88%
Barometro: 997 hPa
Clouds: Few Clouds
Visibility: 10 km
Cloud details: Few Clouds 914 m
2024/02/23 17:55 LIMN 231755Z 00000KT 9999 FEW030 11/09 Q0997
 
LIPA - Pordenone-Aviano (it/Us-Af, Italy
Dati ricevuti: 23/02/2024 21:55
Non Attivo
Pioviggine, Mist, Nuvoloso
Pioviggine, Mist, Nuvoloso
 Vento da N
Vento: N 7 km/h
Temperatura: 7°C
Temperatura del Vento: 6°C
P.to Rugiada: 6°C
Umidità: 93%
Barometro: 999 hPa
Summary: Pioviggine, Mist
Clouds: Molto nuvoloso
Visibility: 5 km
Cloud details: Parz. nuvoloso 762 m
Molto nuvoloso 1219 m
2024/02/23 20:55 LIPA 232055Z 36004KT 4500 -RA BR SCT025 BKN040 07/06 Q0999
LIPI - Udine-Rivolto (it-Afb), Italy
Dati ricevuti: 24/02/2024 00:55
Parz. nuvoloso
Parz. nuvoloso
 Vento da N
Vento: N 4 km/h
Temperatura: 7°C
P.to Rugiada: 4°C
Umidità: 81%
Barometro: 1001 hPa
Clouds: Parz. nuvoloso
Visibility: 10 km
Cloud details: Parz. nuvoloso 610 m
Parz. nuvoloso 1829 m
2024/02/23 23:55 LIPI 232355Z 35002KT 9999 SCT020 SCT060 07/04 Q1001 RERA
 
LIVO - Udine-Tarvisio, Italy
Dati ricevuti: 23/02/2024 10:55
Non Attivo
Pioggia, Mist, Nuvoloso
Pioggia, Mist, Nuvoloso
 Vento da calm
Vento: Calma
Temperatura: 4°C
P.to Rugiada: 3°C
Umidità: 93%
Barometro: 999 hPa
Summary: Pioggia, Mist
Clouds: Molto nuvoloso
Visibility: 4 km
Cloud details: Molto nuvoloso 610 m
2024/02/23 09:55 LIVO 230955Z 00000KT 4000 RA BR BKN020 04/03 Q0999
LIPQ - Trieste-Ronchi Dei Legionari, Italy
Dati ricevuti: 24/02/2024 01:20
Molto nuvoloso
Molto nuvoloso
 Vento da S
Vento: S 6 km/h
Temperatura: 9°C
P.to Rugiada: 8°C
Umidità: 94%
Barometro: 1002 hPa
Clouds: Molto nuvoloso
Visibility: 10 km
Cloud details: Molto nuvoloso 2377 m
2024/02/24 00:20 LIPQ 240020Z AUTO 17003KT 9999 BKN078/// 09/08 Q1002
 
LIVT - Trieste, Italy
Dati ricevuti: 24/02/2024 00:55

 Vento da E
Vento: E 9 km/h
Temperatura: 9°C
Temperatura del Vento: 7°C
P.to Rugiada: 7°C
Umidità: 87%
Barometro: 1002 hPa
2024/02/23 23:55 LIVT 232355Z AUTO 09005KT 050V130 //// 09/07 Q1002
LIRQ - Firenze/Peretola, Italy
Dati ricevuti: 24/02/2024 01:20
Parz. nuvoloso
Parz. nuvoloso
 Vento da SE
Vento: SE 11 km/h
Temperatura: 9°C
Temperatura del Vento: 7°C
P.to Rugiada: 7°C
Umidità: 87%
Barometro: 1005 hPa
Clouds: Parz. nuvoloso
Visibility: 10 km
Cloud details: Parz. nuvoloso 1067 m
2024/02/24 00:20 LIRQ 240020Z 13006KT 9999 SCT035 09/07 Q1005
 
LIPK - Forli (civ/It-Af, Italy
Dati ricevuti: 23/02/2024 19:50
Non Attivo
Parz. nuvoloso
Parz. nuvoloso
 Vento da SO
Vento: SO 15 km/h
Temperatura: 8°C
Temperatura del Vento: 5°C
P.to Rugiada: 1°C
Umidità: 62%
Barometro: 1000 hPa
Clouds: Parz. nuvoloso
Visibility: 10 km
Cloud details: Parz. nuvoloso 1524 m
2024/02/23 18:50 LIPK 231850Z 22008KT 9999 SCT050 08/01 Q1000
LIRS - Grosseto (it-Afb, Italy
Dati ricevuti: 24/02/2024 00:55
Parz. nuvoloso
Parz. nuvoloso
 Vento da NNE
Vento: NNE 4 km/h
Temperatura: 8°C
P.to Rugiada: -12°C
Umidità: 23%
Barometro: 1007 hPa
Clouds: Parz. nuvoloso
Visibility: 10 km
Cloud details: Few Clouds 610 m
Parz. nuvoloso 1829 m
2024/02/23 23:55 LIRS 232355Z 02002KT 9999 FEW020 SCT060 08/M12 Q1007
 
LIRP - Pisa (civ/It-Afb, Italy
Dati ricevuti: 24/02/2024 01:15
Molto nuvoloso
Molto nuvoloso
 Vento da OSO
Vento: OSO 28 km/h
Temperatura: 11°C
P.to Rugiada: 6°C
Umidità: 72%
Barometro: 1004 hPa
Clouds: Molto nuvoloso
Visibility: 10 km
Cloud details: Molto nuvoloso 914 m
2024/02/24 00:15 LIRP 240015Z 24015KT 9999 BKN030 11/06 Q1004 TEMPO 24020G30KT
LIVF - Frontone, Italy
Dati ricevuti: 24/02/2024 00:55
Parz. nuvoloso
Parz. nuvoloso
 Vento da SSO
Vento: SSO 33 km/h
Temperatura: 7°C
Temperatura del Vento: 3°C
P.to Rugiada: 1°C
Umidità: 66%
Barometro: 1001 hPa
Clouds: Parz. nuvoloso
Visibility: 10 km
Cloud details: Parz. nuvoloso 914 m
2024/02/23 23:55 LIVF 232355Z 21018KT 9999 SCT030 07/01 Q1001
 
LIPC - Cervia (it-Afb), Italy
Dati ricevuti: 24/02/2024 00:55
Sereno
Sereno
 Vento da N
Vento: N 4 km/h
Temperatura: 5°C
P.to Rugiada: 3°C
Umidità: 87%
Barometro: 1003 hPa
Summary: Sereno
Visibility: greater than 10 km
2024/02/23 23:55 LIPC 232355Z 35002KT CAVOK 05/03 Q1003
LIPR - Rimini (civ/It-A, Italy
Dati ricevuti: 24/02/2024 01:20
Sereno
Sereno
 Vento da SSO
Vento: SSO 13 km/h
Temperatura: 9°C
Temperatura del Vento: 7°C
P.to Rugiada: 3°C
Umidità: 66%
Barometro: 1003 hPa
Clouds: Sereno
Visibility: 10 km
2024/02/24 00:20 LIPR 240020Z AUTO 20007KT 160V240 9999 NCD 09/03 Q1003
 
LIRX - Monte Calamita, Italy
Dati ricevuti: 24/02/2024 00:55

 Vento da varies
Vento: varies 0 km/h
2024/02/23 23:55 LIRX 232355Z AUTO /////KT //// ///// Q////
LIVM - Punta Marina/Rav, Italy
Dati ricevuti: 24/02/2024 00:55

 Vento da varies
Vento: varies 0 km/h
2024/02/23 23:55 LIVM 232355Z AUTO /////KT //// ///// Q////